Time;durP1;ratioP1;P1;durP2;ratioP2;P2;SDS_P1;SDS_P2;PMS_P1;PMS_P2;Temp;Humidity;BMP_temperature;BMP_pressure;BME280_temperature;BME280_humidity;BME280_pressure;Samples;Min_cycle;Max_cycle;Signal;HPM_P1;HPM_P2
2023/08/29 00:01:10;;;;;;;1.30;1.00;;;24.30;59.30;;;;;;223437;1244;24263;-58
2023/08/29 00:06:22;;;;;;;1.10;1.00;;;24.30;59.50;;;;;;222636;1261;25320;-61
2023/08/29 00:11:24;;;;;;;1.80;1.20;;;24.30;60.30;;;;;;222652;1264;23025;-58
2023/08/29 00:16:27;;;;;;;0.80;0.80;;;24.30;59.80;;;;;;222243;1255;231658;-57
2023/08/29 00:21:33;;;;;;;1.00;0.90;;;24.30;60.20;;;;;;222467;1258;25346;-59
2023/08/29 00:26:36;;;;;;;1.30;1.20;;;24.30;60.00;;;;;;222526;1251;22525;-57
2023/08/29 00:31:42;;;;;;;1.20;1.10;;;24.30;60.30;;;;;;222473;1266;23925;-58
2023/08/29 00:36:45;;;;;;;2.00;1.20;;;24.30;60.50;;;;;;222221;1264;23887;-58
2023/08/29 00:41:52;;;;;;;1.00;0.80;;;24.20;60.50;;;;;;222790;1263;23913;-58
2023/08/29 00:47:04;;;;;;;1.10;0.90;;;24.20;60.70;;;;;;222426;1266;25364;-58
2023/08/29 00:52:13;;;;;;;1.20;1.00;;;24.20;60.90;;;;;;222640;1254;22525;-59
2023/08/29 00:57:21;;;;;;;0.80;0.80;;;24.20;60.80;;;;;;222500;1257;23893;-58
2023/08/29 01:02:27;;;;;;;0.90;0.90;;;24.30;61.20;;;;;;222608;1261;24042;-57
2023/08/29 01:07:32;;;;;;;1.50;0.70;;;24.30;61.30;;;;;;222108;1267;24015;-60
2023/08/29 01:13:05;;;;;;;2.90;0.90;;;24.30;61.10;;;;;;222328;1260;22509;-57
2023/08/29 01:18:35;;;;;;;1.00;0.80;;;24.30;61.10;;;;;;222495;1263;22581;-59
2023/08/29 01:23:43;;;;;;;1.10;1.00;;;24.30;61.20;;;;;;222742;1268;24349;-61
2023/08/29 01:28:47;;;;;;;1.00;1.00;;;24.30;61.30;;;;;;222205;1267;25399;-58
2023/08/29 01:33:50;;;;;;;0.70;0.70;;;24.40;61.40;;;;;;228671;1264;22520;-58
2023/08/29 01:38:53;;;;;;;0.90;0.80;;;24.40;61.30;;;;;;222869;1261;22641;-58
2023/08/29 01:43:57;;;;;;;0.90;0.90;;;24.50;60.90;;;;;;226264;1260;22620;-60
2023/08/29 01:49:02;;;;;;;0.80;0.80;;;24.40;61.10;;;;;;222875;1263;22568;-58
2023/08/29 01:54:05;;;;;;;0.60;0.60;;;24.30;61.30;;;;;;222394;1254;23936;-57
2023/08/29 01:59:08;;;;;;;0.80;0.80;;;24.30;61.50;;;;;;222440;1264;22827;-58
2023/08/29 02:04:11;;;;;;;0.80;0.80;;;24.20;61.60;;;;;;222652;1266;23885;-57
2023/08/29 02:09:20;;;;;;;0.90;0.90;;;24.30;61.80;;;;;;222533;1260;22644;-59
2023/08/29 02:14:32;;;;;;;0.70;0.70;;;24.20;61.60;;;;;;222568;1260;25148;-59
2023/08/29 02:19:42;;;;;;;0.70;0.70;;;24.20;62.00;;;;;;222774;1244;24937;-58
2023/08/29 02:24:47;;;;;;;0.90;0.80;;;24.20;62.00;;;;;;222587;1258;23438;-58
2023/08/29 02:29:50;;;;;;;0.80;0.80;;;24.30;61.80;;;;;;222439;1266;22517;-59
2023/08/29 02:34:54;;;;;;;0.60;0.60;;;24.20;62.40;;;;;;222502;1254;22643;-59
2023/08/29 02:39:57;;;;;;;0.90;0.60;;;24.30;62.10;;;;;;222670;1264;22521;-61
2023/08/29 02:45:04;;;;;;;1.80;0.80;;;24.30;62.10;;;;;;222575;1260;22523;-58
2023/08/29 02:50:07;;;;;;;1.10;1.00;;;24.20;62.10;;;;;;222622;1263;22597;-59
2023/08/29 02:55:10;;;;;;;0.90;0.90;;;24.20;62.30;;;;;;222352;1260;24193;-58
2023/08/29 03:00:14;;;;;;;2.10;0.90;;;24.20;62.20;;;;;;222411;1260;22508;-59
2023/08/29 03:05:17;;;;;;;1.10;0.80;;;24.20;62.30;;;;;;222162;1253;26515;-58
2023/08/29 03:10:21;;;;;;;2.80;0.80;;;24.20;62.30;;;;;;222545;1264;22528;-59
2023/08/29 03:15:33;;;;;;;1.00;0.90;;;24.20;62.40;;;;;;222494;1260;22512;-60
2023/08/29 03:20:43;;;;;;;0.40;0.40;;;24.20;62.40;;;;;;222718;1260;22754;-58
2023/08/29 03:25:46;;;;;;;0.60;0.60;;;24.30;62.40;;;;;;222417;1253;25272;-57
2023/08/29 03:30:49;;;;;;;2.10;0.70;;;24.20;62.70;;;;;;222153;1259;22517;-58
2023/08/29 03:35:59;;;;;;;0.70;0.60;;;24.20;62.50;;;;;;227129;1260;22524;-58
2023/08/29 03:41:03;;;;;;;0.90;0.80;;;24.30;62.20;;;;;;223434;1256;22893;-58
2023/08/29 03:46:07;;;;;;;0.60;0.60;;;24.30;62.30;;;;;;223177;1260;22532;-59
2023/08/29 03:51:12;;;;;;;0.80;0.70;;;24.30;62.40;;;;;;222467;1261;22511;-58
2023/08/29 03:56:18;;;;;;;0.70;0.70;;;24.30;63.00;;;;;;222489;1268;22514;-59
2023/08/29 04:01:21;;;;;;;0.60;0.60;;;24.30;62.70;;;;;;222695;1260;24735;-59
2023/08/29 04:06:24;;;;;;;0.70;0.60;;;24.20;62.80;;;;;;222377;1266;22515;-57
2023/08/29 04:11:27;;;;;;;0.60;0.40;;;24.20;62.80;;;;;;222516;1261;24297;-59
2023/08/29 04:16:30;;;;;;;0.60;0.60;;;24.20;63.00;;;;;;222419;1260;22564;-59
2023/08/29 04:21:33;;;;;;;0.70;0.60;;;24.30;63.90;;;;;;222439;1260;22514;-61
2023/08/29 04:26:41;;;;;;;1.20;0.50;;;24.20;63.30;;;;;;222378;1260;22808;-58
2023/08/29 04:31:46;;;;;;;1.30;0.90;;;24.20;63.20;;;;;;222641;1267;22538;-58
2023/08/29 04:36:53;;;;;;;1.00;0.80;;;24.20;63.20;;;;;;222378;1268;22646;-59
2023/08/29 04:41:56;;;;;;;0.60;0.60;;;24.20;63.20;;;;;;222555;1255;22529;-59
2023/08/29 04:47:03;;;;;;;0.60;0.60;;;24.20;63.40;;;;;;222325;1261;22531;-59
2023/08/29 04:52:14;;;;;;;0.70;0.70;;;24.30;63.10;;;;;;222345;1254;22569;-58
2023/08/29 04:57:20;;;;;;;0.50;0.50;;;24.20;63.10;;;;;;222467;1261;25345;-59
2023/08/29 05:02:26;;;;;;;0.60;0.60;;;24.20;63.30;;;;;;222713;1262;22514;-57
2023/08/29 05:07:30;;;;;;;0.80;0.60;;;24.30;63.90;;;;;;222279;1266;22527;-58
2023/08/29 05:12:33;;;;;;;0.60;0.60;;;24.30;63.50;;;;;;222359;1244;24216;-57
2023/08/29 05:17:41;;;;;;;0.40;0.40;;;24.30;63.30;;;;;;222479;1263;22770;-58
2023/08/29 05:22:44;;;;;;;0.50;0.50;;;24.20;63.30;;;;;;222675;1262;22573;-57
2023/08/29 05:27:57;;;;;;;0.80;0.80;;;24.30;63.30;;;;;;222353;1268;22617;-57
2023/08/29 05:32:59;;;;;;;0.80;0.80;;;24.20;63.40;;;;;;222511;1261;22754;-57
2023/08/29 05:38:03;;;;;;;1.00;0.40;;;24.20;63.40;;;;;;222550;1266;24247;-59
2023/08/29 05:43:06;;;;;;;1.70;0.50;;;24.20;63.40;;;;;;222542;1263;24180;-59
2023/08/29 05:48:09;;;;;;;1.40;0.60;;;24.20;63.80;;;;;;222248;1263;22525;-58
2023/08/29 05:53:12;;;;;;;1.40;0.70;;;24.20;63.40;;;;;;222622;1263;22474;-58
2023/08/29 05:58:16;;;;;;;0.80;0.50;;;24.20;63.90;;;;;;222621;1263;22531;-59
2023/08/29 06:03:18;;;;;;;0.70;0.60;;;24.20;63.50;;;;;;222687;1266;24125;-59
2023/08/29 06:08:25;;;;;;;0.50;0.50;;;24.20;63.50;;;;;;222194;1268;24373;-57
2023/08/29 06:13:29;;;;;;;0.30;0.30;;;24.10;63.60;;;;;;222289;1263;23009;-59
2023/08/29 06:18:35;;;;;;;0.60;0.60;;;24.20;64.00;;;;;;222788;1268;23886;-62
2023/08/29 06:23:42;;;;;;;0.60;0.60;;;24.20;63.90;;;;;;222518;1268;22556;-59
2023/08/29 06:28:45;;;;;;;1.40;0.70;;;24.20;64.50;;;;;;222535;1261;22557;-57
2023/08/29 06:33:48;;;;;;;0.60;0.60;;;24.20;64.20;;;;;;222267;1256;25197;-58
2023/08/29 06:38:52;;;;;;;0.50;0.40;;;24.20;64.20;;;;;;224194;1268;24202;-56
2023/08/29 06:43:55;;;;;;;0.80;0.50;;;24.20;64.10;;;;;;222298;1265;22535;-58
2023/08/29 06:48:57;;;;;;;1.80;0.50;;;24.20;64.30;;;;;;222752;1262;22514;-58
2023/08/29 06:54:01;;;;;;;1.40;0.60;;;24.20;64.00;;;;;;222414;1266;23879;-56
2023/08/29 06:59:04;;;;;;;1.70;0.70;;;24.20;63.90;;;;;;222460;1268;22521;-58
2023/08/29 07:04:10;;;;;;;1.30;0.50;;;24.20;64.30;;;;;;222416;1264;22452;-58
2023/08/29 07:09:14;;;;;;;1.80;0.50;;;24.20;64.20;;;;;;222775;1262;22735;-57
2023/08/29 07:14:17;;;;;;;3.20;0.60;;;24.20;64.10;;;;;;222394;1266;22597;-58
2023/08/29 07:19:20;;;;;;;0.40;0.40;;;24.20;64.30;;;;;;222185;1265;25376;-59
2023/08/29 07:24:23;;;;;;;0.50;0.50;;;24.20;64.20;;;;;;222479;1260;22526;-59
2023/08/29 07:29:25;;;;;;;1.40;0.50;;;24.10;64.10;;;;;;222331;1244;24213;-58
2023/08/29 07:34:28;;;;;;;2.20;0.50;;;24.20;64.00;;;;;;222573;1266;25278;-58
2023/08/29 07:39:32;;;;;;;0.50;0.40;;;24.20;63.90;;;;;;222515;1263;22990;-66
2023/08/29 07:44:35;;;;;;;0.70;0.70;;;24.20;64.50;;;;;;222207;1268;23918;-67
2023/08/29 07:49:37;;;;;;;1.70;0.50;;;24.20;64.30;;;;;;222354;1268;22644;-58
2023/08/29 07:54:41;;;;;;;1.70;0.80;;;24.30;65.00;;;;;;222386;1268;23008;-57
2023/08/29 07:59:44;;;;;;;1.30;0.90;;;24.30;65.10;;;;;;222478;1263;24183;-58
2023/08/29 08:04:47;;;;;;;1.00;0.70;;;24.30;64.70;;;;;;222790;1262;25326;-57
2023/08/29 08:09:50;;;;;;;1.90;0.80;;;24.30;64.60;;;;;;222055;1265;24470;-57
2023/08/29 08:14:56;;;;;;;1.00;0.80;;;24.30;64.70;;;;;;222431;1261;25666;-57
2023/08/29 08:20:00;;;;;;;3.80;0.90;;;24.30;64.80;;;;;;222247;1263;24269;-56
2023/08/29 08:25:04;;;;;;;6.90;0.70;;;24.30;64.80;;;;;;222378;1263;24874;-58
2023/08/29 08:30:08;;;;;;;1.00;0.60;;;24.30;64.60;;;;;;222338;1263;22523;-57
2023/08/29 08:35:11;;;;;;;4.60;0.90;;;24.40;64.40;;;;;;222519;1263;23049;-58
2023/08/29 08:40:15;;;;;;;2.00;0.90;;;24.40;64.70;;;;;;224954;1269;22534;-56
2023/08/29 08:45:21;;;;;;;2.30;0.70;;;24.40;64.40;;;;;;225444;1262;22517;-53
2023/08/29 08:50:25;;;;;;;2.50;1.30;;;24.40;64.20;;;;;;224878;1267;22533;-60
2023/08/29 08:55:29;;;;;;;8.70;1.50;;;24.50;64.30;;;;;;227744;1266;22814;-51
2023/08/29 09:00:33;;;;;;;5.40;1.40;;;24.60;63.70;;;;;;222372;1257;24305;-54
2023/08/29 09:05:36;;;;;;;6.90;1.00;;;24.70;63.50;;;;;;223033;1266;22755;-57
2023/08/29 09:10:40;;;;;;;4.60;1.00;;;24.60;63.90;;;;;;223258;1268;22786;-55
2023/08/29 09:15:45;;;;;;;1.50;1.00;;;24.50;64.40;;;;;;223455;1264;23149;-51
2023/08/29 09:20:53;;;;;;;2.80;1.10;;;24.70;63.70;;;;;;228145;1265;23027;-53
2023/08/29 09:25:59;;;;;;;12.70;1.70;;;24.80;63.70;;;;;;228389;1267;22653;-55
2023/08/29 09:31:11;;;;;;;10.40;1.80;;;24.80;65.80;;;;;;228079;1265;24296;-51
2023/08/29 09:36:14;;;;;;;;;;;24.90;66.50;;;;;;228306;1259;23345;-51
2023/08/29 09:41:17;;;;;;;10.30;2.00;;;25.20;66.20;;;;;;228359;1268;22563;-52
2023/08/29 09:46:24;;;;;;;15.30;2.20;;;25.30;65.80;;;;;;227620;1263;22567;-54
2023/08/29 09:51:32;;;;;;;8.70;2.40;;;25.10;66.10;;;;;;227000;1263;22900;-53
2023/08/29 09:56:38;;;;;;;6.20;1.60;;;25.10;65.90;;;;;;227183;1266;22520;-59
2023/08/29 10:01:44;;;;;;;7.40;1.90;;;25.00;65.70;;;;;;222481;1263;25606;-58
2023/08/29 10:06:48;;;;;;;4.50;2.20;;;25.00;66.00;;;;;;223400;1253;22513;-58
2023/08/29 10:11:52;;;;;;;12.40;1.90;;;25.00;66.50;;;;;;222651;1267;25400;-58
2023/08/29 10:16:59;;;;;;;9.70;2.00;;;25.00;66.30;;;;;;222883;1262;24387;-55
2023/08/29 10:22:04;;;;;;;6.40;1.80;;;24.90;66.10;;;;;;222349;1261;22766;-58
2023/08/29 10:27:07;;;;;;;6.30;1.50;;;24.90;66.30;;;;;;222451;1265;22534;-59
2023/08/29 10:32:10;;;;;;;6.90;2.00;;;24.90;66.50;;;;;;222354;1260;22539;-59
2023/08/29 10:37:18;;;;;;;5.50;1.80;;;24.90;66.20;;;;;;222128;1263;22639;-60
2023/08/29 10:42:20;;;;;;;5.50;1.80;;;24.80;66.10;;;;;;222712;1262;24028;-60
2023/08/29 10:47:26;;;;;;;5.50;1.70;;;24.80;66.10;;;;;;222402;1261;22577;-61
2023/08/29 10:52:41;;;;;;;6.10;2.10;;;24.80;66.10;;;;;;222347;1253;22511;-59
2023/08/29 10:57:44;;;;;;;4.60;2.20;;;24.80;66.20;;;;;;222674;1263;25296;-59
2023/08/29 11:02:47;;;;;;;4.50;1.80;;;24.80;66.00;;;;;;222880;1263;22540;-57
2023/08/29 11:07:52;;;;;;;4.60;1.60;;;24.80;66.40;;;;;;222311;1261;22648;-59
2023/08/29 11:13:06;;;;;;;3.20;1.70;;;24.80;65.90;;;;;;222575;1266;25400;-58
2023/08/29 11:18:26;;;;;;;5.70;1.50;;;24.80;65.80;;;;;;222730;1263;22514;-60
2023/08/29 11:23:34;;;;;;;5.50;1.70;;;24.80;65.70;;;;;;222711;1266;22737;-59
2023/08/29 11:28:42;;;;;;;18.10;2.00;;;24.90;65.60;;;;;;222976;1265;22640;-60
2023/08/29 11:33:49;;;;;;;5.90;2.00;;;24.80;65.70;;;;;;222519;1263;24193;-58
2023/08/29 11:38:51;;;;;;;4.90;1.80;;;24.80;66.00;;;;;;222606;1267;26512;-62
2023/08/29 11:43:59;;;;;;;2.50;1.80;;;24.80;65.70;;;;;;222822;1268;22649;-59
2023/08/29 11:49:22;;;;;;;19.40;2.40;;;24.80;65.70;;;;;;222440;1268;25482;-61
2023/08/29 11:54:39;;;;;;;2.60;1.30;;;24.80;65.70;;;;;;222801;1257;22534;-60
2023/08/29 11:59:43;;;;;;;3.30;1.60;;;24.80;65.60;;;;;;222871;1260;22510;-62
2023/08/29 12:04:48;;;;;;;6.70;1.50;;;24.80;65.80;;;;;;222685;1259;22520;-59
2023/08/29 12:10:02;;;;;;;19.30;2.80;;;24.90;65.70;;;;;;222425;1253;25431;-57
2023/08/29 12:15:16;;;;;;;10.70;1.80;;;24.80;65.60;;;;;;222271;1268;243106;-59
2023/08/29 12:20:35;;;;;;;5.10;1.70;;;24.80;65.50;;;;;;222511;1263;22567;-59
2023/08/29 12:25:38;;;;;;;6.40;2.00;;;24.80;65.30;;;;;;222453;1263;23000;-58
2023/08/29 12:30:40;;;;;;;5.20;2.00;;;24.90;65.10;;;;;;222438;1266;23902;-61
2023/08/29 12:35:43;;;;;;;4.00;1.50;;;24.90;65.00;;;;;;222524;1263;25586;-59
2023/08/29 12:40:46;;;;;;;2.10;1.60;;;24.80;65.10;;;;;;222560;1263;22653;-58
2023/08/29 12:45:57;;;;;;;1.60;1.50;;;24.70;65.20;;;;;;222754;1266;22642;-62
2023/08/29 12:51:04;;;;;;;1.50;1.40;;;24.70;65.10;;;;;;222308;1256;25654;-61
2023/08/29 12:56:15;;;;;;;2.60;1.60;;;24.80;65.00;;;;;;222451;1267;25574;-58
2023/08/29 13:01:18;;;;;;;2.20;1.80;;;24.70;65.00;;;;;;222455;1266;22540;-60
2023/08/29 13:06:24;;;;;;;2.40;1.70;;;24.80;65.10;;;;;;222317;1267;22630;-61
2023/08/29 13:11:29;;;;;;;7.40;2.50;;;24.70;65.50;;;;;;222495;1260;25160;-61
2023/08/29 13:16:35;;;;;;;5.70;1.60;;;24.70;65.30;;;;;;222697;1264;22636;-61
2023/08/29 13:21:41;;;;;;;4.20;2.10;;;24.70;65.00;;;;;;223008;1267;25430;-64
2023/08/29 13:26:44;;;;;;;3.90;2.00;;;24.70;65.30;;;;;;222723;1250;22639;-64
2023/08/29 13:31:47;;;;;;;5.20;2.00;;;24.70;65.20;;;;;;222480;1261;22523;-59
2023/08/29 13:36:50;;;;;;;4.90;1.70;;;24.70;65.30;;;;;;222611;1263;22524;-58
2023/08/29 13:41:53;;;;;;;7.50;1.90;;;24.70;65.10;;;;;;222903;1268;22590;-56
2023/08/29 13:46:59;;;;;;;5.80;2.20;;;24.70;65.30;;;;;;222245;1266;22633;-58
2023/08/29 13:52:03;;;;;;;7.00;2.00;;;24.80;65.30;;;;;;222932;1263;24368;-60
2023/08/29 13:57:06;;;;;;;6.90;2.30;;;24.70;65.10;;;;;;223052;1263;22514;-57
2023/08/29 14:02:10;;;;;;;6.30;2.10;;;24.80;66.50;;;;;;224514;1262;23882;-58
2023/08/29 14:07:15;;;;;;;15.50;2.60;;;24.80;65.10;;;;;;222753;1266;22533;-55
2023/08/29 14:12:18;;;;;;;9.40;2.60;;;24.70;64.60;;;;;;222017;1254;22536;-56
2023/08/29 14:17:22;;;;;;;6.70;2.70;;;24.70;64.10;;;;;;224246;1268;22541;-58
2023/08/29 14:22:26;;;;;;;6.50;2.80;;;24.70;63.90;;;;;;222675;1263;22598;-58
2023/08/29 14:27:29;;;;;;;6.00;2.70;;;24.60;64.30;;;;;;222702;1264;22791;-56
2023/08/29 14:32:33;;;;;;;3.40;2.40;;;24.50;64.30;;;;;;222419;1265;24416;-58
2023/08/29 14:37:38;;;;;;;4.10;2.60;;;24.50;65.00;;;;;;222726;1268;25343;-56
2023/08/29 14:42:41;;;;;;;3.60;2.50;;;24.50;64.30;;;;;;222320;1267;24219;-59
2023/08/29 14:47:44;;;;;;;4.10;2.90;;;24.50;64.30;;;;;;222166;1269;23550;-55
2023/08/29 14:52:50;;;;;;;4.10;3.20;;;24.40;63.80;;;;;;222558;1266;22633;-57
2023/08/29 14:57:59;;;;;;;3.80;3.30;;;24.30;63.50;;;;;;222541;1267;22515;-58
2023/08/29 15:03:05;;;;;;;5.20;3.00;;;24.30;63.50;;;;;;222560;1260;22515;-59
2023/08/29 15:08:13;;;;;;;3.40;3.10;;;24.30;63.50;;;;;;222709;1266;24272;-56
2023/08/29 15:13:17;;;;;;;3.00;2.80;;;24.30;63.60;;;;;;222854;1268;24247;-56
2023/08/29 15:18:20;;;;;;;5.00;2.90;;;24.30;63.60;;;;;;223034;1266;24445;-57
2023/08/29 15:23:29;;;;;;;3.30;2.90;;;24.20;63.60;;;;;;222608;1269;23919;-57
2023/08/29 15:28:32;;;;;;;3.80;3.40;;;24.30;63.60;;;;;;222783;1261;23233;-57
2023/08/29 15:33:36;;;;;;;4.80;3.60;;;24.30;63.50;;;;;;222468;1260;23946;-56
2023/08/29 15:38:40;;;;;;;3.10;2.90;;;24.30;63.50;;;;;;222760;1268;22653;-57
2023/08/29 15:43:46;;;;;;;6.10;3.20;;;24.20;63.40;;;;;;222886;1268;24214;-57
2023/08/29 15:48:50;;;;;;;3.80;3.30;;;24.20;63.50;;;;;;222712;1266;24075;-56
2023/08/29 15:53:53;;;;;;;3.40;3.10;;;24.20;63.40;;;;;;222484;1268;22632;-57
2023/08/29 15:58:57;;;;;;;3.70;3.30;;;24.10;63.40;;;;;;222432;1268;22919;-55
2023/08/29 16:04:01;;;;;;;3.90;3.60;;;24.20;63.50;;;;;;222572;1260;24198;-57
2023/08/29 16:09:08;;;;;;;4.30;3.60;;;24.10;63.40;;;;;;222788;1266;22518;-58
2023/08/29 16:14:12;;;;;;;3.70;3.30;;;24.10;63.30;;;;;;222633;1263;23927;-57
2023/08/29 16:19:16;;;;;;;3.60;3.40;;;24.10;63.40;;;;;;222907;1267;25360;-57
2023/08/29 16:24:20;;;;;;;3.20;2.90;;;24.10;63.40;;;;;;223067;1268;24231;-55
2023/08/29 16:29:27;;;;;;;3.20;3.00;;;24.10;63.60;;;;;;222956;1267;24393;-56
2023/08/29 16:34:34;;;;;;;4.00;3.10;;;24.10;63.50;;;;;;222541;1268;23886;-57
2023/08/29 16:39:40;;;;;;;3.50;3.20;;;24.10;63.70;;;;;;222445;1266;25331;-58
2023/08/29 16:44:47;;;;;;;3.50;3.30;;;24.00;63.70;;;;;;222287;1268;22530;-56
2023/08/29 16:49:50;;;;;;;4.10;3.20;;;24.00;64.00;;;;;;222806;1266;25252;-57
2023/08/29 16:54:54;;;;;;;3.80;3.50;;;24.00;63.60;;;;;;222978;1266;22542;-56
2023/08/29 17:00:10;;;;;;;3.10;2.90;;;24.00;63.70;;;;;;222903;1269;23935;-57
2023/08/29 17:05:13;;;;;;;3.60;3.20;;;24.00;63.70;;;;;;222626;1259;24215;-57
2023/08/29 17:10:17;;;;;;;3.70;3.40;;;24.00;63.70;;;;;;222626;1266;22643;-57
2023/08/29 17:15:25;;;;;;;3.80;3.30;;;24.00;63.70;;;;;;222651;1266;22604;-59
2023/08/29 17:20:38;;;;;;;3.30;3.00;;;24.00;64.10;;;;;;222933;1266;22768;-58
2023/08/29 17:25:42;;;;;;;7.10;3.20;;;23.90;64.20;;;;;;222289;1254;25342;-57
2023/08/29 17:30:48;;;;;;;7.70;3.20;;;23.90;64.40;;;;;;222418;1267;25458;-58
2023/08/29 17:35:51;;;;;;;6.40;3.80;;;24.00;64.60;;;;;;222173;1263;22485;-56
2023/08/29 17:40:58;;;;;;;3.50;3.10;;;24.00;64.80;;;;;;222096;1269;25201;-55
2023/08/29 17:46:03;;;;;;;7.40;4.00;;;24.10;64.60;;;;;;222840;1260;22522;-58
2023/08/29 17:51:20;;;;;;;6.20;2.90;;;24.00;64.20;;;;;;222367;1260;24200;-56
2023/08/29 17:56:24;;;;;;;9.80;3.10;;;24.00;64.30;;;;;;222814;1261;23620;-55
2023/08/29 18:01:27;;;;;;;3.50;3.10;;;24.00;64.30;;;;;;222264;1247;22997;-55
2023/08/29 18:06:31;;;;;;;14.30;3.50;;;24.10;64.50;;;;;;223137;1264;22593;-57
2023/08/29 18:11:36;;;;;;;5.30;2.90;;;24.00;64.30;;;;;;222464;1256;22523;-57
2023/08/29 18:16:39;;;;;;;4.90;2.90;;;24.10;64.60;;;;;;222154;1267;22632;-58
2023/08/29 18:21:52;;;;;;;3.70;3.20;;;24.10;64.40;;;;;;222124;1267;24250;-58
2023/08/29 18:26:57;;;;;;;17.50;4.90;;;24.10;63.80;;;;;;222564;1269;24193;-57
2023/08/29 18:32:10;;;;;;;4.20;3.60;;;23.90;64.10;;;;;;222629;1268;25622;-57
2023/08/29 18:37:14;;;;;;;19.60;3.60;;;23.70;64.50;;;;;;222463;1264;24227;-57
2023/08/29 18:42:17;;;;;;;6.00;3.20;;;23.80;64.40;;;;;;222686;1254;24196;-58
2023/08/29 18:47:23;;;;;;;5.80;3.30;;;24.00;64.20;;;;;;222528;1268;24237;-56
2023/08/29 18:52:28;;;;;;;9.40;3.40;;;24.10;63.70;;;;;;223111;1263;22601;-56
2023/08/29 18:57:33;;;;;;;11.40;3.40;;;24.10;63.80;;;;;;222556;1261;25268;-55
2023/08/29 19:02:43;;;;;;;16.50;3.10;;;24.10;63.70;;;;;;222761;1263;25346;-57
2023/08/29 19:07:47;;;;;;;8.70;3.20;;;24.10;64.60;;;;;;222545;1263;26503;-57
2023/08/29 19:12:52;;;;;;;10.00;3.20;;;24.20;64.50;;;;;;222600;1269;22569;-57
2023/08/29 19:18:02;;;;;;;4.80;2.80;;;24.20;64.80;;;;;;222516;1269;23211;-58
2023/08/29 19:23:08;;;;;;;7.90;3.10;;;24.10;65.70;;;;;;222557;1266;22521;-57
2023/08/29 19:28:13;;;;;;;3.60;2.70;;;24.10;66.10;;;;;;222617;1265;22542;-61
2023/08/29 19:33:18;;;;;;;14.10;3.20;;;24.10;66.30;;;;;;222722;1261;22663;-55
2023/08/29 19:38:23;;;;;;;9.30;3.60;;;24.20;66.00;;;;;;222388;1255;23882;-57
2023/08/29 19:43:26;;;;;;;5.40;2.90;;;24.30;66.90;;;;;;222474;1250;22644;-56
2023/08/29 19:48:30;;;;;;;6.80;3.80;;;24.30;66.80;;;;;;222597;1261;22555;-57
2023/08/29 19:53:35;;;;;;;7.70;3.30;;;24.50;66.90;;;;;;222193;1268;25498;-59
2023/08/29 19:58:43;;;;;;;7.60;3.80;;;24.40;66.70;;;;;;222360;1246;24224;-58
2023/08/29 20:03:48;;;;;;;5.70;3.60;;;24.40;66.70;;;;;;222391;1261;22521;-57
2023/08/29 20:08:59;;;;;;;6.20;3.80;;;24.30;66.50;;;;;;222447;1261;24203;-53
2023/08/29 20:14:06;;;;;;;4.10;3.30;;;24.30;66.00;;;;;;222784;1261;24227;-54
2023/08/29 20:19:14;;;;;;;8.50;3.20;;;24.30;66.00;;;;;;222350;1267;25517;-52
2023/08/29 20:24:23;;;;;;;9.60;3.40;;;24.30;66.40;;;;;;222277;1264;23238;-56
2023/08/29 20:29:28;;;;;;;8.80;3.30;;;24.40;65.90;;;;;;222236;1264;22756;-58
2023/08/29 20:34:34;;;;;;;3.30;2.90;;;24.30;66.30;;;;;;222243;1254;25227;-57
2023/08/29 20:39:38;;;;;;;6.40;3.00;;;24.30;66.30;;;;;;222569;1254;22626;-56
2023/08/29 20:44:43;;;;;;;8.80;3.10;;;24.50;66.00;;;;;;222409;1261;23882;-58
2023/08/29 20:49:46;;;;;;;7.70;3.30;;;24.20;66.00;;;;;;222456;1257;24228;-53
2023/08/29 20:54:50;;;;;;;9.70;4.40;;;24.30;65.80;;;;;;222385;1264;25626;-59
2023/08/29 20:59:54;;;;;;;7.10;3.90;;;24.30;67.70;;;;;;222388;1268;23994;-58
2023/08/29 21:04:58;;;;;;;14.10;4.20;;;24.30;69.40;;;;;;222275;1260;25460;-59
2023/08/29 21:10:08;;;;;;;8.10;3.80;;;24.30;69.00;;;;;;222368;1260;23130;-59
2023/08/29 21:15:11;;;;;;;5.80;3.50;;;24.20;69.40;;;;;;221947;1261;22626;-60
2023/08/29 21:20:25;;;;;;;5.60;3.10;;;24.20;69.10;;;;;;221936;1254;24199;-59
2023/08/29 21:25:30;;;;;;;6.10;3.10;;;24.10;68.70;;;;;;221994;1268;22527;-60
2023/08/29 21:30:33;;;;;;;7.60;3.70;;;24.10;68.80;;;;;;222679;1264;22801;-59
2023/08/29 21:35:40;;;;;;;5.50;3.30;;;24.10;68.40;;;;;;222647;1264;22636;-60
2023/08/29 21:40:45;;;;;;;6.30;3.00;;;24.10;67.80;;;;;;222523;1258;24294;-62
2023/08/29 21:45:56;;;;;;;7.50;3.20;;;24.10;67.60;;;;;;222434;1268;22805;-59
2023/08/29 21:51:01;;;;;;;3.10;2.80;;;24.10;66.70;;;;;;222599;1264;25284;-59
2023/08/29 21:56:10;;;;;;;3.50;2.50;;;24.10;67.10;;;;;;222662;1261;24268;-58
2023/08/29 22:01:20;;;;;;;3.00;2.00;;;24.10;67.10;;;;;;222036;1267;24235;-60
2023/08/29 22:06:24;;;;;;;3.60;2.50;;;24.10;67.10;;;;;;222567;1264;25487;-60
2023/08/29 22:11:30;;;;;;;3.30;2.40;;;24.10;66.90;;;;;;222488;1267;22645;-59
2023/08/29 22:16:34;;;;;;;5.50;2.30;;;24.00;66.80;;;;;;222240;1262;22636;-59
2023/08/29 22:21:36;;;;;;;3.40;2.10;;;24.10;66.50;;;;;;222615;1247;24205;-60
2023/08/29 22:26:39;;;;;;;3.40;2.10;;;24.10;66.90;;;;;;222311;1260;25397;-55
2023/08/29 22:31:42;;;;;;;6.10;2.30;;;24.20;66.50;;;;;;222286;1266;22521;-55
2023/08/29 22:36:45;;;;;;;3.60;2.10;;;24.10;66.60;;;;;;222429;1260;22607;-54
2023/08/29 22:41:52;;;;;;;2.30;2.00;;;24.20;66.60;;;;;;222279;1266;22514;-55
2023/08/29 22:46:54;;;;;;;3.00;1.80;;;24.20;66.60;;;;;;222256;1254;22536;-55
2023/08/29 22:51:57;;;;;;;4.50;2.40;;;24.10;66.40;;;;;;221934;1261;22534;-53
2023/08/29 22:57:07;;;;;;;3.70;1.90;;;24.10;66.10;;;;;;222620;1267;22524;-54
2023/08/29 23:02:10;;;;;;;1.90;1.70;;;24.00;66.30;;;;;;222511;1267;22545;-55
2023/08/29 23:07:13;;;;;;;2.10;1.50;;;24.00;66.40;;;;;;222640;1266;22535;-51
2023/08/29 23:12:19;;;;;;;2.60;1.60;;;24.00;66.50;;;;;;222215;1254;23908;-54
2023/08/29 23:17:30;;;;;;;4.40;2.00;;;24.00;66.30;;;;;;222421;1266;22691;-54
2023/08/29 23:22:36;;;;;;;1.50;1.40;;;24.00;66.20;;;;;;222357;1266;24192;-54
2023/08/29 23:27:48;;;;;;;1.90;1.30;;;24.00;66.40;;;;;;222418;1260;22643;-57
2023/08/29 23:32:54;;;;;;;3.20;1.70;;;23.90;66.30;;;;;;222417;1268;22515;-53
2023/08/29 23:38:05;;;;;;;2.60;1.40;;;23.90;66.50;;;;;;222555;1264;25647;-55
2023/08/29 23:43:12;;;;;;;1.50;1.40;;;23.90;66.30;;;;;;222420;1264;22514;-53
2023/08/29 23:48:22;;;;;;;1.20;1.10;;;23.90;65.90;;;;;;222651;1260;24176;-57
2023/08/29 23:53:29;;;;;;;2.20;1.20;;;23.90;65.80;;;;;;222769;1264;22550;-57
2023/08/29 23:58:38;;;;;;;1.40;1.30;;;23.90;66.10;;;;;;222614;1263;22521;-57
